MOL Gratitude — VRJU7 — position and weather

sailwx.info

Track history (hours):
 
Tides and Currents Weather Stations Pressure Air Temp Water Temp Dewpoint Dewpoint Depression Visibility Wind Speed Wind Dir Waves Ship Positions

MOL Gratitude

Last reported at 2018-Jun-16 17:15 UTC. Time now 2018-Jun-21 14:13 UTC.
Position N 26°11' W 079°24'.

Length 275 m; draft 10.8 m.

Type: Ship (hazmat cat A). MMSI: 477462400.

Date/timePositionNaut miles runAvg speedWind from/ knotsBaromVisibWave heightAir tempDewpointWater temp
2018-Jun-16 17:15N 26°11' W 079°24'1713.6
2018-Jun-16 16:01N 25°54' W 079°29'013.6
2018-Jun-16 16:00N 25°54' W 079°29'713.7
2018-Jun-16 15:30N 25°47' W 079°30'713.7
2018-Jun-16 15:00N 25°41' W 079°31'713.8
2018-Jun-16 14:30N 25°34' W 079°32'713.8
2018-Jun-16 14:00N 25°27' W 079°34'  
2018-Jun-13 22:41N 28°52' W 094°05'315.6
2018-Jun-13 22:29N 28°53' W 094°08'915.6
2018-Jun-13 21:56N 28°55' W 094°18'614.3
2018-Jun-13 21:30N 28°56' W 094°25'714.3
2018-Jun-13 21:00N 29°03' W 094°26'713.8
2018-Jun-13 20:30N 29°10' W 094°28'612.8
2018-Jun-13 20:00N 29°14' W 094°33'4 8.5
2018-Jun-13 19:30N 29°17' W 094°36'5 9.9
2018-Jun-13 19:00N 29°20' W 094°41'611.7
2018-Jun-13 18:30N 29°21' W 094°48'612.2
2018-Jun-13 18:00N 29°27' W 094°51'611.5
2018-Jun-13 17:30N 29°32' W 094°54'510.7
2018-Jun-13 17:00N 29°36' W 094°57'5 8.9
2018-Jun-13 16:30N 29°41' W 094°59'1 1.7
2018-Jun-13 16:00N 29°41' W 094°60'0 0.0
2018-Jun-13 15:29N 29°41' W 094°60'0 0.0
2018-Jun-13 14:59N 29°41' W 094°60'0 0.0
2018-Jun-13 14:29N 29°41' W 094°60'0 0.0
2018-Jun-13 13:59N 29°41' W 094°60'0 0.0
2018-Jun-13 13:29N 29°41' W 094°60'0 0.0
2018-Jun-13 12:59N 29°41' W 094°60'0 0.0
2018-Jun-13 12:29N 29°41' W 094°60'0 0.0
2018-Jun-13 11:59N 29°41' W 094°60'0 0.0
2018-Jun-13 11:29N 29°41' W 094°60'0 0.0
2018-Jun-13 10:59N 29°41' W 094°60'0 0.0
2018-Jun-13 10:29N 29°41' W 094°60'0 0.0
2018-Jun-13 09:59N 29°41' W 094°60'0 0.0
2018-Jun-13 09:29N 29°41' W 094°60'0 0.0
2018-Jun-13 08:59N 29°41' W 094°60'0 0.0
2018-Jun-13 08:29N 29°41' W 094°60'0 0.0
2018-Jun-13 07:59N 29°41' W 094°60'0 0.0
2018-Jun-13 07:25N 29°41' W 094°60'0 0.0
2018-Jun-13 07:00N 29°41' W 094°60'0 0.0
2018-Jun-13 06:30N 29°41' W 094°60'0 0.0
2018-Jun-13 06:00N 29°41' W 094°60'0 0.0
2018-Jun-13 05:30N 29°41' W 094°60'0 0.0
2018-Jun-13 05:00N 29°41' W 094°60'0 0.0
2018-Jun-13 04:30N 29°41' W 094°60'0 0.0
2018-Jun-13 04:00N 29°41' W 094°60'0 0.0
2018-Jun-13 03:30N 29°41' W 094°60'0 0.0
2018-Jun-13 03:00N 29°41' W 094°60'0 0.0
2018-Jun-13 02:30N 29°41' W 094°60'0 0.0
2018-Jun-13 01:56N 29°41' W 094°60'0 0.0
2018-Jun-13 01:28N 29°41' W 094°60'0 0.0
2018-Jun-13 00:58N 29°41' W 094°60'0 0.0
2018-Jun-13 00:30N 29°41' W 094°60'0 0.0
2018-Jun-12 23:59N 29°41' W 094°60'0 0.0
2018-Jun-12 23:29N 29°41' W 094°60'0 0.0
2018-Jun-12 22:59N 29°41' W 094°60'0 0.0
2018-Jun-12 22:26N 29°41' W 094°60'0 0.0
2018-Jun-12 21:58N 29°41' W 094°60'0 0.0
2018-Jun-12 21:28N 29°41' W 094°60'0 0.0
2018-Jun-12 21:00N 29°41' W 094°60'0 0.0
2018-Jun-12 20:29N 29°41' W 094°60'0 0.0
2018-Jun-12 19:57N 29°41' W 094°60'0 0.0
2018-Jun-12 19:30N 29°41' W 094°60'0 0.0
2018-Jun-12 18:55N 29°41' W 094°60'0 0.0
2018-Jun-12 18:28N 29°41' W 094°60'0 0.0
2018-Jun-12 17:58N 29°41' W 094°60'0 0.0
2018-Jun-12 17:28N 29°41' W 094°60'0 0.1
2018-Jun-12 16:58N 29°41' W 094°60'0 0.0
2018-Jun-12 16:30N 29°41' W 094°60'1 1.2
2018-Jun-12 16:00N 29°41' W 094°59'3 6.2
2018-Jun-12 15:29N 29°38' W 094°58'510.3
2018-Jun-12 15:00N 29°34' W 094°55'712.4
2018-Jun-12 14:28N 29°28' W 094°51'612.9
2018-Jun-12 13:59N 29°22' W 094°48'511.4
2018-Jun-12 13:30N 29°21' W 094°42'713.1
2018-Jun-12 13:00N 29°17' W 094°36'4 6.9
2018-Jun-12 12:29N 29°15' W 094°33'612.9
2018-Jun-12 12:00N 29°11' W 094°27'58311.7
2018-Jun-10 10:07N 19°34' W 095°55'112.6
2018-Jun-10 10:00N 19°33' W 095°55'712.7
2018-Jun-10 09:28N 19°26' W 095°57'612.8
2018-Jun-10 09:00N 19°20' W 095°57'612.2
2018-Jun-10 08:30N 19°14' W 095°59'4 8.4
2018-Jun-10 07:58N 19°11' W 096°02'4 8.0
2018-Jun-10 07:30N 19°12' W 096°06'2 4.4
2018-Jun-10 07:00N 19°13' W 096°08'0 0.0
2018-Jun-10 06:30N 19°13' W 096°08'0 0.0
2018-Jun-10 06:00N 19°13' W 096°08'0 0.0
2018-Jun-10 05:30N 19°13' W 096°08'0 0.0
2018-Jun-10 05:00N 19°13' W 096°08'0 0.0
2018-Jun-10 04:30N 19°13' W 096°08'0 0.0
2018-Jun-10 04:00N 19°13' W 096°08'0 0.0
2018-Jun-10 03:30N 19°13' W 096°08'0 0.0
2018-Jun-10 03:00N 19°13' W 096°08'0 0.0
2018-Jun-10 02:30N 19°13' W 096°08'0 0.0
2018-Jun-10 02:00N 19°13' W 096°08'0 0.0
2018-Jun-10 01:30N 19°13' W 096°08'0 0.0
2018-Jun-10 01:00N 19°13' W 096°08'0 0.0
2018-Jun-10 00:30N 19°13' W 096°08'0 0.0
2018-Jun-09 23:57N 19°13' W 096°08'0 0.0
2018-Jun-09 23:30N 19°13' W 096°08'0 0.0
2018-Jun-09 22:59N 19°13' W 096°08'0 0.0
2018-Jun-09 22:29N 19°13' W 096°08'0 0.0
2018-Jun-09 21:59N 19°13' W 096°08'0 0.0
2018-Jun-09 21:29N 19°13' W 096°08'0 0.0
2018-Jun-09 20:59N 19°13' W 096°08'0 0.0
2018-Jun-09 20:26N 19°13' W 096°08'0 0.0
2018-Jun-09 19:50N 19°13' W 096°08'0 0.0
2018-Jun-09 19:29N 19°13' W 096°08'0 0.0
2018-Jun-09 18:59N 19°13' W 096°08'0 0.0
2018-Jun-09 18:26N 19°13' W 096°08'0 0.0
2018-Jun-09 17:56N 19°13' W 096°08'0 0.0
2018-Jun-09 17:29N 19°13' W 096°08'0 0.0
2018-Jun-09 16:56N 19°13' W 096°08'0 0.0
2018-Jun-09 16:29N 19°13' W 096°08'0 0.0
2018-Jun-09 15:56N 19°13' W 096°08'0 0.0
2018-Jun-09 14:59N 19°13' W 096°08'1 1.9
2018-Jun-09 14:30N 19°12' W 096°07'5 9.6
2018-Jun-09 14:00N 19°11' W 096°02'1 1.7
2018-Jun-09 13:26N 19°10' W 096°02'0 0.1
2018-Jun-09 12:44N 19°10' W 096°02'0 0.0
2018-Jun-09 12:26N 19°10' W 096°02'0 0.0
2018-Jun-09 11:56N 19°10' W 096°02'0 0.0
2018-Jun-09 11:26N 19°10' W 096°02'0 0.1
2018-Jun-09 10:56N 19°10' W 096°02'1 1.6
2018-Jun-09 10:30N 19°11' W 096°01'3 6.2
2018-Jun-09 10:00N 19°14' W 096°00'510.9
2018-Jun-09 09:30N 19°19' W 096°00'611.1
2018-Jun-09 09:00N 19°24' W 096°02'610.9
2018-Jun-09 08:30N 19°29' W 096°05'610.7
2018-Jun-09 07:58N 19°35' W 096°07'511.0
2018-Jun-09 07:30N 19°39' W 096°10'  
Track history (hours):
 
Tides and Currents Weather Stations Pressure Air Temp Water Temp Dewpoint Dewpoint Depression Visibility Wind Speed Wind Dir Waves Ship Positions

MOL Gratitude

Last reported at 2018-Jun-16 17:15 UTC. Time now 2018-Jun-21 14:13 UTC.
Position N 26°11' W 079°24'.

Length 275 m; draft 10.8 m.

Type: Ship (hazmat cat A). MMSI: 477462400.

Date/timePositionNaut miles runAvg speedWind from/ knotsBaromVisibWave heightAir tempDewpointWater temp
2018-Jun-16 17:15N 26°11' W 079°24'1713.6
2018-Jun-16 16:01N 25°54' W 079°29'013.6
2018-Jun-16 16:00N 25°54' W 079°29'713.7
2018-Jun-16 15:30N 25°47' W 079°30'713.7
2018-Jun-16 15:00N 25°41' W 079°31'713.8
2018-Jun-16 14:30N 25°34' W 079°32'713.8
2018-Jun-16 14:00N 25°27' W 079°34'  
2018-Jun-13 22:41N 28°52' W 094°05'315.6
2018-Jun-13 22:29N 28°53' W 094°08'915.6
2018-Jun-13 21:56N 28°55' W 094°18'614.3
2018-Jun-13 21:30N 28°56' W 094°25'714.3
2018-Jun-13 21:00N 29°03' W 094°26'713.8
2018-Jun-13 20:30N 29°10' W 094°28'612.8
2018-Jun-13 20:00N 29°14' W 094°33'4 8.5
2018-Jun-13 19:30N 29°17' W 094°36'5 9.9
2018-Jun-13 19:00N 29°20' W 094°41'611.7
2018-Jun-13 18:30N 29°21' W 094°48'612.2
2018-Jun-13 18:00N 29°27' W 094°51'611.5
2018-Jun-13 17:30N 29°32' W 094°54'510.7
2018-Jun-13 17:00N 29°36' W 094°57'5 8.9
2018-Jun-13 16:30N 29°41' W 094°59'1 1.7
2018-Jun-13 16:00N 29°41' W 094°60'0 0.0
2018-Jun-13 15:29N 29°41' W 094°60'0 0.0
2018-Jun-13 14:59N 29°41' W 094°60'0 0.0
2018-Jun-13 14:29N 29°41' W 094°60'0 0.0
2018-Jun-13 13:59N 29°41' W 094°60'0 0.0
2018-Jun-13 13:29N 29°41' W 094°60'0 0.0
2018-Jun-13 12:59N 29°41' W 094°60'0 0.0
2018-Jun-13 12:29N 29°41' W 094°60'0 0.0
2018-Jun-13 11:59N 29°41' W 094°60'0 0.0
2018-Jun-13 11:29N 29°41' W 094°60'0 0.0
2018-Jun-13 10:59N 29°41' W 094°60'0 0.0
2018-Jun-13 10:29N 29°41' W 094°60'0 0.0
2018-Jun-13 09:59N 29°41' W 094°60'0 0.0
2018-Jun-13 09:29N 29°41' W 094°60'0 0.0
2018-Jun-13 08:59N 29°41' W 094°60'0 0.0
2018-Jun-13 08:29N 29°41' W 094°60'0 0.0
2018-Jun-13 07:59N 29°41' W 094°60'0 0.0
2018-Jun-13 07:25N 29°41' W 094°60'0 0.0
2018-Jun-13 07:00N 29°41' W 094°60'0 0.0
2018-Jun-13 06:30N 29°41' W 094°60'0 0.0
2018-Jun-13 06:00N 29°41' W 094°60'0 0.0
2018-Jun-13 05:30N 29°41' W 094°60'0 0.0
2018-Jun-13 05:00N 29°41' W 094°60'0 0.0
2018-Jun-13 04:30N 29°41' W 094°60'0 0.0
2018-Jun-13 04:00N 29°41' W 094°60'0 0.0
2018-Jun-13 03:30N 29°41' W 094°60'0 0.0
2018-Jun-13 03:00N 29°41' W 094°60'0 0.0
2018-Jun-13 02:30N 29°41' W 094°60'0 0.0
2018-Jun-13 01:56N 29°41' W 094°60'0 0.0
2018-Jun-13 01:28N 29°41' W 094°60'0 0.0
2018-Jun-13 00:58N 29°41' W 094°60'0 0.0
2018-Jun-13 00:30N 29°41' W 094°60'0 0.0
2018-Jun-12 23:59N 29°41' W 094°60'0 0.0
2018-Jun-12 23:29N 29°41' W 094°60'0 0.0
2018-Jun-12 22:59N 29°41' W 094°60'0 0.0
2018-Jun-12 22:26N 29°41' W 094°60'0 0.0
2018-Jun-12 21:58N 29°41' W 094°60'0 0.0
2018-Jun-12 21:28N 29°41' W 094°60'0 0.0
2018-Jun-12 21:00N 29°41' W 094°60'0 0.0
2018-Jun-12 20:29N 29°41' W 094°60'0 0.0
2018-Jun-12 19:57N 29°41' W 094°60'0 0.0
2018-Jun-12 19:30N 29°41' W 094°60'0 0.0
2018-Jun-12 18:55N 29°41' W 094°60'0 0.0
2018-Jun-12 18:28N 29°41' W 094°60'0 0.0
2018-Jun-12 17:58N 29°41' W 094°60'0 0.0
2018-Jun-12 17:28N 29°41' W 094°60'0 0.1
2018-Jun-12 16:58N 29°41' W 094°60'0 0.0
2018-Jun-12 16:30N 29°41' W 094°60'1 1.2
2018-Jun-12 16:00N 29°41' W 094°59'3 6.2
2018-Jun-12 15:29N 29°38' W 094°58'510.3
2018-Jun-12 15:00N 29°34' W 094°55'712.4
2018-Jun-12 14:28N 29°28' W 094°51'612.9
2018-Jun-12 13:59N 29°22' W 094°48'511.4
2018-Jun-12 13:30N 29°21' W 094°42'713.1
2018-Jun-12 13:00N 29°17' W 094°36'4 6.9
2018-Jun-12 12:29N 29°15' W 094°33'612.9
2018-Jun-12 12:00N 29°11' W 094°27'58311.7
2018-Jun-10 10:07N 19°34' W 095°55'112.6
2018-Jun-10 10:00N 19°33' W 095°55'712.7
2018-Jun-10 09:28N 19°26' W 095°57'612.8
2018-Jun-10 09:00N 19°20' W 095°57'612.2
2018-Jun-10 08:30N 19°14' W 095°59'4 8.4
2018-Jun-10 07:58N 19°11' W 096°02'4 8.0
2018-Jun-10 07:30N 19°12' W 096°06'2 4.4
2018-Jun-10 07:00N 19°13' W 096°08'0 0.0
2018-Jun-10 06:30N 19°13' W 096°08'0 0.0
2018-Jun-10 06:00N 19°13' W 096°08'0 0.0
2018-Jun-10 05:30N 19°13' W 096°08'0 0.0
2018-Jun-10 05:00N 19°13' W 096°08'0 0.0
2018-Jun-10 04:30N 19°13' W 096°08'0 0.0
2018-Jun-10 04:00N 19°13' W 096°08'0 0.0
2018-Jun-10 03:30N 19°13' W 096°08'0 0.0
2018-Jun-10 03:00N 19°13' W 096°08'0 0.0
2018-Jun-10 02:30N 19°13' W 096°08'0 0.0
2018-Jun-10 02:00N 19°13' W 096°08'0 0.0
2018-Jun-10 01:30N 19°13' W 096°08'0 0.0
2018-Jun-10 01:00N 19°13' W 096°08'0 0.0
2018-Jun-10 00:30N 19°13' W 096°08'0 0.0
2018-Jun-09 23:57N 19°13' W 096°08'0 0.0
2018-Jun-09 23:30N 19°13' W 096°08'0 0.0
2018-Jun-09 22:59N 19°13' W 096°08'0 0.0
2018-Jun-09 22:29N 19°13' W 096°08'0 0.0
2018-Jun-09 21:59N 19°13' W 096°08'0 0.0
2018-Jun-09 21:29N 19°13' W 096°08'0 0.0
2018-Jun-09 20:59N 19°13' W 096°08'0 0.0
2018-Jun-09 20:26N 19°13' W 096°08'0 0.0
2018-Jun-09 19:50N 19°13' W 096°08'0 0.0
2018-Jun-09 19:29N 19°13' W 096°08'0 0.0
2018-Jun-09 18:59N 19°13' W 096°08'0 0.0
2018-Jun-09 18:26N 19°13' W 096°08'0 0.0
2018-Jun-09 17:56N 19°13' W 096°08'0 0.0
2018-Jun-09 17:29N 19°13' W 096°08'0 0.0
2018-Jun-09 16:56N 19°13' W 096°08'0 0.0
2018-Jun-09 16:29N 19°13' W 096°08'0 0.0
2018-Jun-09 15:56N 19°13' W 096°08'0 0.0
2018-Jun-09 14:59N 19°13' W 096°08'1 1.9
2018-Jun-09 14:30N 19°12' W 096°07'5 9.6
2018-Jun-09 14:00N 19°11' W 096°02'1 1.7
2018-Jun-09 13:26N 19°10' W 096°02'0 0.1
2018-Jun-09 12:44N 19°10' W 096°02'0 0.0
2018-Jun-09 12:26N 19°10' W 096°02'0 0.0
2018-Jun-09 11:56N 19°10' W 096°02'0 0.0
2018-Jun-09 11:26N 19°10' W 096°02'0 0.1
2018-Jun-09 10:56N 19°10' W 096°02'1 1.6
2018-Jun-09 10:30N 19°11' W 096°01'3 6.2
2018-Jun-09 10:00N 19°14' W 096°00'510.9
2018-Jun-09 09:30N 19°19' W 096°00'611.1
2018-Jun-09 09:00N 19°24' W 096°02'610.9
2018-Jun-09 08:30N 19°29' W 096°05'610.7
2018-Jun-09 07:58N 19°35' W 096°07'511.0
2018-Jun-09 07:30N 19°39' W 096°10'  

Dump ship's entire track history